Colesville, New Jersey
Current Conditions -  °F | °C
As of 3:53 PM on Thursday 18 Dec 2014 (Local Time) from KFWN Reporting Station
Overcast Overcast  
Wind Chill: 37°   Ceiling: 3000
Heat Index: 37°   Visibility: 10mi
Dew Point: 25°   Wind: 3mph
Humidity: 62%   Direction: 240°WSW
Pressure: 29.97"   Gusts: NA
Location:  41.2395°N, 74.6087°W
Report Text: KFWN 182053Z AUTO 24003KT 10SM OVC030 03/M04 A2997 RMK AO2 SLP153 T00281039 53009
Loading
Personal Weather Stations






























Interactive Weather Map New forecast layout! Learn more

10-Day Weather Forecast

Advertisements
Track Severe Weather on mobile